sensor_id;sensor_type;location;lat;lon;timestamp;P1;durP1;ratioP1;P2;durP2;ratioP2
27025;SDS011;14565;48.626;8.978;2023-07-09T00:01:58;5.80;;;3.15;;
27025;SDS011;14565;48.626;8.978;2023-07-09T00:04:24;4.35;;;2.72;;
27025;SDS011;14565;48.626;8.978;2023-07-09T00:06:50;6.97;;;3.28;;
27025;SDS011;14565;48.626;8.978;2023-07-09T00:09:19;8.48;;;3.17;;
27025;SDS011;14565;48.626;8.978;2023-07-09T00:11:46;6.22;;;2.70;;
27025;SDS011;14565;48.626;8.978;2023-07-09T00:14:13;6.07;;;2.88;;
27025;SDS011;14565;48.626;8.978;2023-07-09T00:16:40;7.22;;;3.25;;
27025;SDS011;14565;48.626;8.978;2023-07-09T00:19:11;7.00;;;3.50;;
27025;SDS011;14565;48.626;8.978;2023-07-09T00:21:41;6.63;;;3.53;;
27025;SDS011;14565;48.626;8.978;2023-07-09T00:24:10;7.38;;;2.95;;
27025;SDS011;14565;48.626;8.978;2023-07-09T00:26:37;7.23;;;3.30;;
27025;SDS011;14565;48.626;8.978;2023-07-09T00:29:07;6.55;;;3.45;;
27025;SDS011;14565;48.626;8.978;2023-07-09T00:31:36;9.27;;;3.50;;
27025;SDS011;14565;48.626;8.978;2023-07-09T00:34:09;6.43;;;3.40;;
27025;SDS011;14565;48.626;8.978;2023-07-09T00:36:39;10.52;;;3.70;;
27025;SDS011;14565;48.626;8.978;2023-07-09T00:39:30;4.80;;;3.08;;
27025;SDS011;14565;48.626;8.978;2023-07-09T00:41:54;8.70;;;3.45;;
27025;SDS011;14565;48.626;8.978;2023-07-09T00:52:00;7.40;;;3.03;;
27025;SDS011;14565;48.626;8.978;2023-07-09T00:54:30;4.47;;;2.70;;
27025;SDS011;14565;48.626;8.978;2023-07-09T00:57:04;8.18;;;3.35;;
27025;SDS011;14565;48.626;8.978;2023-07-09T00:59:37;6.65;;;3.33;;
27025;SDS011;14565;48.626;8.978;2023-07-09T01:02:05;6.75;;;2.92;;
27025;SDS011;14565;48.626;8.978;2023-07-09T01:04:33;6.18;;;2.80;;
27025;SDS011;14565;48.626;8.978;2023-07-09T01:06:59;4.60;;;2.97;;
27025;SDS011;14565;48.626;8.978;2023-07-09T01:09:25;5.70;;;3.15;;
27025;SDS011;14565;48.626;8.978;2023-07-09T01:11:51;6.45;;;3.22;;
27025;SDS011;14565;48.626;8.978;2023-07-09T01:14:21;5.55;;;3.45;;
27025;SDS011;14565;48.626;8.978;2023-07-09T01:16:53;5.68;;;3.53;;
27025;SDS011;14565;48.626;8.978;2023-07-09T01:19:27;8.38;;;2.97;;
27025;SDS011;14565;48.626;8.978;2023-07-09T01:21:58;8.30;;;3.58;;
27025;SDS011;14565;48.626;8.978;2023-07-09T01:27:31;16.42;;;3.60;;
27025;SDS011;14565;48.626;8.978;2023-07-09T01:30:16;10.98;;;3.90;;
27025;SDS011;14565;48.626;8.978;2023-07-09T01:32:51;4.72;;;3.55;;
27025;SDS011;14565;48.626;8.978;2023-07-09T01:35:20;8.65;;;3.75;;
27025;SDS011;14565;48.626;8.978;2023-07-09T01:37:47;6.55;;;3.78;;
27025;SDS011;14565;48.626;8.978;2023-07-09T01:40:14;6.05;;;3.70;;
27025;SDS011;14565;48.626;8.978;2023-07-09T01:42:42;7.85;;;3.58;;
27025;SDS011;14565;48.626;8.978;2023-07-09T01:45:09;6.68;;;4.10;;
27025;SDS011;14565;48.626;8.978;2023-07-09T01:47:35;7.00;;;3.92;;
27025;SDS011;14565;48.626;8.978;2023-07-09T01:50:02;5.70;;;3.45;;
27025;SDS011;14565;48.626;8.978;2023-07-09T01:52:29;6.03;;;3.92;;
27025;SDS011;14565;48.626;8.978;2023-07-09T01:54:56;12.93;;;3.60;;
27025;SDS011;14565;48.626;8.978;2023-07-09T01:57:23;8.63;;;3.92;;
27025;SDS011;14565;48.626;8.978;2023-07-09T01:59:58;6.85;;;3.75;;
27025;SDS011;14565;48.626;8.978;2023-07-09T02:02:24;4.75;;;3.38;;
27025;SDS011;14565;48.626;8.978;2023-07-09T02:04:54;7.53;;;3.17;;
27025;SDS011;14565;48.626;8.978;2023-07-09T02:07:21;6.45;;;3.35;;
27025;SDS011;14565;48.626;8.978;2023-07-09T02:09:48;7.27;;;3.70;;
27025;SDS011;14565;48.626;8.978;2023-07-09T02:12:14;5.22;;;3.40;;
27025;SDS011;14565;48.626;8.978;2023-07-09T02:14:41;6.35;;;3.83;;
27025;SDS011;14565;48.626;8.978;2023-07-09T02:17:08;6.78;;;3.70;;
27025;SDS011;14565;48.626;8.978;2023-07-09T02:19:34;6.45;;;3.85;;
27025;SDS011;14565;48.626;8.978;2023-07-09T02:22:00;7.65;;;3.55;;
27025;SDS011;14565;48.626;8.978;2023-07-09T02:24:26;8.30;;;3.90;;
27025;SDS011;14565;48.626;8.978;2023-07-09T02:26:55;9.05;;;3.90;;
27025;SDS011;14565;48.626;8.978;2023-07-09T02:29:23;7.03;;;4.15;;
27025;SDS011;14565;48.626;8.978;2023-07-09T02:31:50;5.88;;;3.60;;
27025;SDS011;14565;48.626;8.978;2023-07-09T02:34:20;7.60;;;4.47;;
27025;SDS011;14565;48.626;8.978;2023-07-09T02:36:46;8.75;;;4.60;;
27025;SDS011;14565;48.626;8.978;2023-07-09T02:39:12;7.72;;;3.95;;
27025;SDS011;14565;48.626;8.978;2023-07-09T02:41:39;12.05;;;4.63;;
27025;SDS011;14565;48.626;8.978;2023-07-09T02:44:05;11.40;;;4.32;;
27025;SDS011;14565;48.626;8.978;2023-07-09T02:46:31;6.03;;;3.45;;
27025;SDS011;14565;48.626;8.978;2023-07-09T02:48:57;9.20;;;3.95;;
27025;SDS011;14565;48.626;8.978;2023-07-09T02:51:23;19.50;;;4.80;;
27025;SDS011;14565;48.626;8.978;2023-07-09T02:53:53;8.55;;;3.55;;
27025;SDS011;14565;48.626;8.978;2023-07-09T02:56:19;10.23;;;3.90;;
27025;SDS011;14565;48.626;8.978;2023-07-09T02:58:45;8.82;;;3.97;;
27025;SDS011;14565;48.626;8.978;2023-07-09T03:01:11;8.43;;;4.45;;
27025;SDS011;14565;48.626;8.978;2023-07-09T03:03:37;7.30;;;3.83;;
27025;SDS011;14565;48.626;8.978;2023-07-09T03:06:03;6.45;;;4.25;;
27025;SDS011;14565;48.626;8.978;2023-07-09T03:08:29;7.10;;;4.30;;
27025;SDS011;14565;48.626;8.978;2023-07-09T03:10:54;7.85;;;4.05;;
27025;SDS011;14565;48.626;8.978;2023-07-09T03:13:20;6.72;;;4.28;;
27025;SDS011;14565;48.626;8.978;2023-07-09T03:15:53;8.30;;;4.28;;
27025;SDS011;14565;48.626;8.978;2023-07-09T03:18:23;7.88;;;4.18;;
27025;SDS011;14565;48.626;8.978;2023-07-09T03:20:49;9.70;;;3.97;;
27025;SDS011;14565;48.626;8.978;2023-07-09T03:23:15;9.07;;;4.22;;
27025;SDS011;14565;48.626;8.978;2023-07-09T03:25:42;10.88;;;4.50;;
27025;SDS011;14565;48.626;8.978;2023-07-09T03:28:08;8.85;;;4.30;;
27025;SDS011;14565;48.626;8.978;2023-07-09T03:30:34;8.30;;;4.40;;
27025;SDS011;14565;48.626;8.978;2023-07-09T03:33:00;8.23;;;4.20;;
27025;SDS011;14565;48.626;8.978;2023-07-09T03:35:25;6.38;;;4.18;;
27025;SDS011;14565;48.626;8.978;2023-07-09T03:37:51;8.55;;;4.57;;
27025;SDS011;14565;48.626;8.978;2023-07-09T03:40:21;11.00;;;4.50;;
27025;SDS011;14565;48.626;8.978;2023-07-09T03:42:48;7.30;;;4.15;;
27025;SDS011;14565;48.626;8.978;2023-07-09T03:45:14;6.53;;;4.18;;
27025;SDS011;14565;48.626;8.978;2023-07-09T03:47:40;7.68;;;4.47;;
27025;SDS011;14565;48.626;8.978;2023-07-09T03:50:07;7.20;;;4.40;;
27025;SDS011;14565;48.626;8.978;2023-07-09T03:55:00;10.23;;;4.35;;
27025;SDS011;14565;48.626;8.978;2023-07-09T03:57:27;7.23;;;4.90;;
27025;SDS011;14565;48.626;8.978;2023-07-09T03:59:52;5.88;;;4.10;;
27025;SDS011;14565;48.626;8.978;2023-07-09T04:02:18;6.05;;;4.25;;
27025;SDS011;14565;48.626;8.978;2023-07-09T04:04:44;9.50;;;4.60;;
27025;SDS011;14565;48.626;8.978;2023-07-09T04:07:09;6.90;;;4.07;;
27025;SDS011;14565;48.626;8.978;2023-07-09T04:09:35;8.65;;;4.40;;
27025;SDS011;14565;48.626;8.978;2023-07-09T04:12:01;9.27;;;4.57;;
27025;SDS011;14565;48.626;8.978;2023-07-09T04:14:28;8.38;;;4.18;;
27025;SDS011;14565;48.626;8.978;2023-07-09T04:16:54;9.27;;;4.65;;
27025;SDS011;14565;48.626;8.978;2023-07-09T04:19:20;8.93;;;4.68;;
27025;SDS011;14565;48.626;8.978;2023-07-09T04:21:45;6.80;;;4.38;;
27025;SDS011;14565;48.626;8.978;2023-07-09T04:24:11;6.30;;;4.05;;
27025;SDS011;14565;48.626;8.978;2023-07-09T04:26:38;7.97;;;4.53;;
27025;SDS011;14565;48.626;8.978;2023-07-09T04:29:05;8.20;;;4.45;;
27025;SDS011;14565;48.626;8.978;2023-07-09T04:31:31;7.00;;;4.43;;
27025;SDS011;14565;48.626;8.978;2023-07-09T04:33:56;10.90;;;4.60;;
27025;SDS011;14565;48.626;8.978;2023-07-09T04:36:22;6.80;;;4.40;;
27025;SDS011;14565;48.626;8.978;2023-07-09T04:38:48;7.72;;;4.60;;
27025;SDS011;14565;48.626;8.978;2023-07-09T04:41:14;8.07;;;4.25;;
27025;SDS011;14565;48.626;8.978;2023-07-09T04:43:39;6.75;;;4.20;;
27025;SDS011;14565;48.626;8.978;2023-07-09T04:46:05;8.68;;;4.18;;
27025;SDS011;14565;48.626;8.978;2023-07-09T04:48:31;9.38;;;4.30;;
27025;SDS011;14565;48.626;8.978;2023-07-09T04:50:56;6.30;;;4.43;;
27025;SDS011;14565;48.626;8.978;2023-07-09T04:53:22;7.53;;;4.30;;
27025;SDS011;14565;48.626;8.978;2023-07-09T04:55:49;6.85;;;4.20;;
27025;SDS011;14565;48.626;8.978;2023-07-09T04:58:15;8.13;;;4.20;;
27025;SDS011;14565;48.626;8.978;2023-07-09T05:00:41;14.00;;;4.38;;
27025;SDS011;14565;48.626;8.978;2023-07-09T05:03:08;9.57;;;4.18;;
27025;SDS011;14565;48.626;8.978;2023-07-09T05:05:33;8.90;;;4.38;;
27025;SDS011;14565;48.626;8.978;2023-07-09T05:07:59;6.78;;;4.38;;
27025;SDS011;14565;48.626;8.978;2023-07-09T05:10:25;7.07;;;4.45;;
27025;SDS011;14565;48.626;8.978;2023-07-09T05:12:51;7.13;;;4.03;;
27025;SDS011;14565;48.626;8.978;2023-07-09T05:15:20;8.40;;;3.92;;
27025;SDS011;14565;48.626;8.978;2023-07-09T05:17:47;6.47;;;4.20;;
27025;SDS011;14565;48.626;8.978;2023-07-09T05:20:14;10.90;;;4.57;;
27025;SDS011;14565;48.626;8.978;2023-07-09T05:22:40;10.82;;;4.82;;
27025;SDS011;14565;48.626;8.978;2023-07-09T05:25:09;7.50;;;4.00;;
27025;SDS011;14565;48.626;8.978;2023-07-09T05:27:35;6.20;;;3.85;;
27025;SDS011;14565;48.626;8.978;2023-07-09T05:30:00;6.35;;;4.18;;
27025;SDS011;14565;48.626;8.978;2023-07-09T05:32:26;7.50;;;4.22;;
27025;SDS011;14565;48.626;8.978;2023-07-09T05:34:52;7.07;;;4.30;;
27025;SDS011;14565;48.626;8.978;2023-07-09T05:37:17;6.93;;;3.80;;
27025;SDS011;14565;48.626;8.978;2023-07-09T05:39:43;13.23;;;4.28;;
27025;SDS011;14565;48.626;8.978;2023-07-09T05:42:09;7.88;;;4.25;;
27025;SDS011;14565;48.626;8.978;2023-07-09T05:44:34;7.28;;;4.10;;
27025;SDS011;14565;48.626;8.978;2023-07-09T05:47:00;5.88;;;4.05;;
27025;SDS011;14565;48.626;8.978;2023-07-09T05:49:26;8.90;;;3.65;;
27025;SDS011;14565;48.626;8.978;2023-07-09T05:51:51;7.93;;;3.97;;
27025;SDS011;14565;48.626;8.978;2023-07-09T05:54:17;7.13;;;3.67;;
27025;SDS011;14565;48.626;8.978;2023-07-09T05:56:43;5.50;;;3.47;;
27025;SDS011;14565;48.626;8.978;2023-07-09T05:59:09;6.00;;;3.60;;
27025;SDS011;14565;48.626;8.978;2023-07-09T06:01:35;7.30;;;3.25;;
27025;SDS011;14565;48.626;8.978;2023-07-09T06:04:00;5.95;;;3.88;;
27025;SDS011;14565;48.626;8.978;2023-07-09T06:06:26;8.10;;;3.60;;
27025;SDS011;14565;48.626;8.978;2023-07-09T06:08:53;6.30;;;3.28;;
27025;SDS011;14565;48.626;8.978;2023-07-09T06:11:19;6.40;;;3.38;;
27025;SDS011;14565;48.626;8.978;2023-07-09T06:13:45;5.03;;;3.30;;
27025;SDS011;14565;48.626;8.978;2023-07-09T06:16:13;6.70;;;3.58;;
27025;SDS011;14565;48.626;8.978;2023-07-09T06:18:38;3.00;;;2.70;;
27025;SDS011;14565;48.626;8.978;2023-07-09T06:21:04;7.00;;;3.27;;
27025;SDS011;14565;48.626;8.978;2023-07-09T06:23:32;5.13;;;3.80;;
27025;SDS011;14565;48.626;8.978;2023-07-09T06:25:58;4.80;;;3.20;;
27025;SDS011;14565;48.626;8.978;2023-07-09T06:28:24;7.63;;;3.20;;
27025;SDS011;14565;48.626;8.978;2023-07-09T06:30:53;4.90;;;3.20;;
27025;SDS011;14565;48.626;8.978;2023-07-09T06:33:20;8.93;;;3.08;;
27025;SDS011;14565;48.626;8.978;2023-07-09T06:35:49;5.22;;;2.92;;
27025;SDS011;14565;48.626;8.978;2023-07-09T06:38:17;6.07;;;3.40;;
27025;SDS011;14565;48.626;8.978;2023-07-09T06:40:43;8.20;;;3.63;;
27025;SDS011;14565;48.626;8.978;2023-07-09T06:43:09;4.82;;;3.20;;
27025;SDS011;14565;48.626;8.978;2023-07-09T06:45:34;6.43;;;3.25;;
27025;SDS011;14565;48.626;8.978;2023-07-09T06:48:00;20.67;;;3.70;;
27025;SDS011;14565;48.626;8.978;2023-07-09T06:50:26;4.50;;;3.10;;
27025;SDS011;14565;48.626;8.978;2023-07-09T06:52:52;3.85;;;3.03;;
27025;SDS011;14565;48.626;8.978;2023-07-09T06:55:17;5.80;;;3.05;;
27025;SDS011;14565;48.626;8.978;2023-07-09T06:57:43;6.03;;;3.03;;
27025;SDS011;14565;48.626;8.978;2023-07-09T07:00:09;10.13;;;3.43;;
27025;SDS011;14565;48.626;8.978;2023-07-09T07:02:35;6.53;;;3.20;;
27025;SDS011;14565;48.626;8.978;2023-07-09T07:05:01;6.05;;;3.20;;
27025;SDS011;14565;48.626;8.978;2023-07-09T07:07:27;6.93;;;3.20;;
27025;SDS011;14565;48.626;8.978;2023-07-09T07:09:52;5.17;;;2.70;;
27025;SDS011;14565;48.626;8.978;2023-07-09T07:12:25;6.43;;;3.20;;
27025;SDS011;14565;48.626;8.978;2023-07-09T07:14:52;7.80;;;3.30;;
27025;SDS011;14565;48.626;8.978;2023-07-09T07:17:19;6.65;;;2.95;;
27025;SDS011;14565;48.626;8.978;2023-07-09T07:19:44;5.68;;;3.10;;
27025;SDS011;14565;48.626;8.978;2023-07-09T07:22:10;4.50;;;2.80;;
27025;SDS011;14565;48.626;8.978;2023-07-09T07:24:36;4.53;;;2.63;;
27025;SDS011;14565;48.626;8.978;2023-07-09T07:27:01;6.40;;;3.03;;
27025;SDS011;14565;48.626;8.978;2023-07-09T07:29:28;4.93;;;2.83;;
27025;SDS011;14565;48.626;8.978;2023-07-09T07:31:54;4.47;;;2.57;;
27025;SDS011;14565;48.626;8.978;2023-07-09T07:34:19;4.22;;;2.70;;
27025;SDS011;14565;48.626;8.978;2023-07-09T07:36:45;4.17;;;2.63;;
27025;SDS011;14565;48.626;8.978;2023-07-09T07:39:12;8.00;;;3.35;;
27025;SDS011;14565;48.626;8.978;2023-07-09T07:41:37;7.47;;;3.47;;
27025;SDS011;14565;48.626;8.978;2023-07-09T07:44:04;6.30;;;3.30;;
27025;SDS011;14565;48.626;8.978;2023-07-09T07:46:30;12.27;;;3.00;;
27025;SDS011;14565;48.626;8.978;2023-07-09T07:48:57;8.85;;;3.40;;
27025;SDS011;14565;48.626;8.978;2023-07-09T07:51:23;9.17;;;3.83;;
27025;SDS011;14565;48.626;8.978;2023-07-09T07:53:48;3.72;;;2.75;;
27025;SDS011;14565;48.626;8.978;2023-07-09T07:56:14;6.70;;;3.42;;
27025;SDS011;14565;48.626;8.978;2023-07-09T07:58:40;6.97;;;3.00;;
27025;SDS011;14565;48.626;8.978;2023-07-09T08:01:05;5.57;;;3.38;;
27025;SDS011;14565;48.626;8.978;2023-07-09T08:03:31;5.90;;;3.25;;
27025;SDS011;14565;48.626;8.978;2023-07-09T08:05:57;4.85;;;2.88;;
27025;SDS011;14565;48.626;8.978;2023-07-09T08:08:23;7.28;;;3.42;;
27025;SDS011;14565;48.626;8.978;2023-07-09T08:10:59;5.40;;;3.08;;
27025;SDS011;14565;48.626;8.978;2023-07-09T08:13:26;6.43;;;3.30;;
27025;SDS011;14565;48.626;8.978;2023-07-09T08:15:52;6.72;;;3.13;;
27025;SDS011;14565;48.626;8.978;2023-07-09T08:18:18;12.70;;;3.45;;
27025;SDS011;14565;48.626;8.978;2023-07-09T08:20:44;5.38;;;2.92;;
27025;SDS011;14565;48.626;8.978;2023-07-09T08:23:10;9.80;;;3.30;;
27025;SDS011;14565;48.626;8.978;2023-07-09T08:25:36;6.03;;;3.28;;
27025;SDS011;14565;48.626;8.978;2023-07-09T08:28:03;10.50;;;3.45;;
27025;SDS011;14565;48.626;8.978;2023-07-09T08:30:28;7.50;;;3.22;;
27025;SDS011;14565;48.626;8.978;2023-07-09T08:32:55;6.65;;;3.70;;
27025;SDS011;14565;48.626;8.978;2023-07-09T08:35:22;6.22;;;3.30;;
27025;SDS011;14565;48.626;8.978;2023-07-09T08:37:48;10.60;;;3.42;;
27025;SDS011;14565;48.626;8.978;2023-07-09T08:40:16;7.43;;;3.20;;
27025;SDS011;14565;48.626;8.978;2023-07-09T08:42:43;6.75;;;3.30;;
27025;SDS011;14565;48.626;8.978;2023-07-09T08:45:30;6.50;;;3.35;;
27025;SDS011;14565;48.626;8.978;2023-07-09T08:48:14;8.68;;;3.38;;
27025;SDS011;14565;48.626;8.978;2023-07-09T08:50:48;7.75;;;3.38;;
27025;SDS011;14565;48.626;8.978;2023-07-09T08:53:21;5.47;;;2.83;;
27025;SDS011;14565;48.626;8.978;2023-07-09T08:55:56;6.25;;;3.42;;
27025;SDS011;14565;48.626;8.978;2023-07-09T09:06:00;9.35;;;3.50;;
27025;SDS011;14565;48.626;8.978;2023-07-09T09:11:13;5.53;;;3.05;;
27025;SDS011;14565;48.626;8.978;2023-07-09T09:13:48;6.38;;;3.30;;
27025;SDS011;14565;48.626;8.978;2023-07-09T09:16:28;6.32;;;3.30;;
27025;SDS011;14565;48.626;8.978;2023-07-09T09:19:01;5.78;;;2.97;;
27025;SDS011;14565;48.626;8.978;2023-07-09T09:21:35;5.70;;;3.13;;
27025;SDS011;14565;48.626;8.978;2023-07-09T09:24:14;7.10;;;3.08;;
27025;SDS011;14565;48.626;8.978;2023-07-09T09:26:47;7.72;;;3.33;;
27025;SDS011;14565;48.626;8.978;2023-07-09T09:29:15;6.57;;;2.90;;
27025;SDS011;14565;48.626;8.978;2023-07-09T09:31:43;5.17;;;3.17;;
27025;SDS011;14565;48.626;8.978;2023-07-09T09:34:21;5.00;;;3.00;;
27025;SDS011;14565;48.626;8.978;2023-07-09T09:36:49;6.50;;;3.40;;
27025;SDS011;14565;48.626;8.978;2023-07-09T09:39:16;6.43;;;3.25;;
27025;SDS011;14565;48.626;8.978;2023-07-09T09:41:45;7.00;;;2.85;;
27025;SDS011;14565;48.626;8.978;2023-07-09T09:44:26;4.75;;;3.10;;
27025;SDS011;14565;48.626;8.978;2023-07-09T09:46:55;4.32;;;2.60;;
27025;SDS011;14565;48.626;8.978;2023-07-09T09:49:22;4.68;;;2.95;;
27025;SDS011;14565;48.626;8.978;2023-07-09T09:51:48;11.63;;;3.08;;
27025;SDS011;14565;48.626;8.978;2023-07-09T09:54:17;4.57;;;2.95;;
27025;SDS011;14565;48.626;8.978;2023-07-09T09:56:45;5.75;;;2.67;;
27025;SDS011;14565;48.626;8.978;2023-07-09T09:59:18;5.82;;;2.63;;
27025;SDS011;14565;48.626;8.978;2023-07-09T10:01:46;7.53;;;2.22;;
27025;SDS011;14565;48.626;8.978;2023-07-09T10:04:15;5.68;;;2.90;;
27025;SDS011;14565;48.626;8.978;2023-07-09T10:06:44;7.22;;;2.88;;
27025;SDS011;14565;48.626;8.978;2023-07-09T10:11:47;3.97;;;2.55;;
27025;SDS011;14565;48.626;8.978;2023-07-09T10:22:21;7.15;;;3.05;;
27025;SDS011;14565;48.626;8.978;2023-07-09T10:33:21;7.65;;;3.10;;
27025;SDS011;14565;48.626;8.978;2023-07-09T10:39:08;5.35;;;2.83;;
27025;SDS011;14565;48.626;8.978;2023-07-09T10:41:39;5.10;;;3.25;;
27025;SDS011;14565;48.626;8.978;2023-07-09T10:44:10;5.55;;;3.05;;
27025;SDS011;14565;48.626;8.978;2023-07-09T10:46:48;5.20;;;2.92;;
27025;SDS011;14565;48.626;8.978;2023-07-09T10:49:18;7.50;;;3.33;;
27025;SDS011;14565;48.626;8.978;2023-07-09T10:51:50;6.30;;;3.08;;
27025;SDS011;14565;48.626;8.978;2023-07-09T10:56:51;8.60;;;3.80;;
27025;SDS011;14565;48.626;8.978;2023-07-09T10:59:33;4.85;;;3.30;;
27025;SDS011;14565;48.626;8.978;2023-07-09T11:02:21;7.07;;;3.50;;
27025;SDS011;14565;48.626;8.978;2023-07-09T11:05:02;6.68;;;3.38;;
27025;SDS011;14565;48.626;8.978;2023-07-09T11:10:02;7.43;;;3.63;;
27025;SDS011;14565;48.626;8.978;2023-07-09T11:12:38;7.10;;;3.67;;
27025;SDS011;14565;48.626;8.978;2023-07-09T11:15:09;6.57;;;3.00;;
27025;SDS011;14565;48.626;8.978;2023-07-09T11:17:46;5.07;;;3.03;;
27025;SDS011;14565;48.626;8.978;2023-07-09T11:20:20;6.32;;;3.20;;
27025;SDS011;14565;48.626;8.978;2023-07-09T11:22:53;5.38;;;3.40;;
27025;SDS011;14565;48.626;8.978;2023-07-09T11:25:31;5.55;;;3.33;;
27025;SDS011;14565;48.626;8.978;2023-07-09T11:28:07;5.38;;;3.38;;
27025;SDS011;14565;48.626;8.978;2023-07-09T11:30:45;6.90;;;3.22;;
27025;SDS011;14565;48.626;8.978;2023-07-09T11:33:19;9.55;;;3.35;;
27025;SDS011;14565;48.626;8.978;2023-07-09T11:36:12;8.10;;;3.90;;
27025;SDS011;14565;48.626;8.978;2023-07-09T11:38:48;10.18;;;4.32;;
27025;SDS011;14565;48.626;8.978;2023-07-09T11:41:37;8.40;;;4.00;;
27025;SDS011;14565;48.626;8.978;2023-07-09T11:44:17;7.82;;;3.90;;
27025;SDS011;14565;48.626;8.978;2023-07-09T11:46:48;10.05;;;4.35;;
27025;SDS011;14565;48.626;8.978;2023-07-09T11:52:23;7.65;;;4.20;;
27025;SDS011;14565;48.626;8.978;2023-07-09T11:54:56;9.85;;;3.90;;
27025;SDS011;14565;48.626;8.978;2023-07-09T11:57:23;6.35;;;3.88;;
27025;SDS011;14565;48.626;8.978;2023-07-09T11:59:49;8.27;;;3.60;;
27025;SDS011;14565;48.626;8.978;2023-07-09T12:02:16;6.28;;;3.92;;
27025;SDS011;14565;48.626;8.978;2023-07-09T12:04:44;8.93;;;3.97;;
27025;SDS011;14565;48.626;8.978;2023-07-09T12:07:15;7.95;;;3.55;;
27025;SDS011;14565;48.626;8.978;2023-07-09T12:09:43;7.78;;;3.78;;
27025;SDS011;14565;48.626;8.978;2023-07-09T12:12:19;11.35;;;3.72;;
27025;SDS011;14565;48.626;8.978;2023-07-09T12:14:48;7.22;;;3.83;;
27025;SDS011;14565;48.626;8.978;2023-07-09T12:17:14;8.60;;;3.67;;
27025;SDS011;14565;48.626;8.978;2023-07-09T12:19:40;7.70;;;3.55;;
27025;SDS011;14565;48.626;8.978;2023-07-09T12:22:06;8.32;;;3.53;;
27025;SDS011;14565;48.626;8.978;2023-07-09T12:24:40;5.65;;;3.65;;
27025;SDS011;14565;48.626;8.978;2023-07-09T12:29:46;4.97;;;3.13;;
27025;SDS011;14565;48.626;8.978;2023-07-09T12:32:15;9.40;;;3.78;;
27025;SDS011;14565;48.626;8.978;2023-07-09T12:34:46;7.20;;;3.72;;
27025;SDS011;14565;48.626;8.978;2023-07-09T12:37:16;8.98;;;4.00;;
27025;SDS011;14565;48.626;8.978;2023-07-09T12:39:43;5.35;;;3.67;;
27025;SDS011;14565;48.626;8.978;2023-07-09T12:42:14;6.20;;;3.67;;
27025;SDS011;14565;48.626;8.978;2023-07-09T12:44:44;11.38;;;3.85;;
27025;SDS011;14565;48.626;8.978;2023-07-09T12:47:13;7.30;;;3.58;;
27025;SDS011;14565;48.626;8.978;2023-07-09T12:49:41;7.88;;;3.47;;
27025;SDS011;14565;48.626;8.978;2023-07-09T12:52:28;8.55;;;3.40;;
27025;SDS011;14565;48.626;8.978;2023-07-09T12:55:00;9.85;;;3.33;;
27025;SDS011;14565;48.626;8.978;2023-07-09T12:57:28;6.88;;;3.30;;
27025;SDS011;14565;48.626;8.978;2023-07-09T12:59:55;5.13;;;2.92;;
27025;SDS011;14565;48.626;8.978;2023-07-09T13:02:24;8.70;;;3.40;;
27025;SDS011;14565;48.626;8.978;2023-07-09T13:05:01;7.00;;;3.13;;
27025;SDS011;14565;48.626;8.978;2023-07-09T13:07:31;7.57;;;3.30;;
27025;SDS011;14565;48.626;8.978;2023-07-09T13:10:04;6.68;;;2.63;;
27025;SDS011;14565;48.626;8.978;2023-07-09T13:12:41;11.63;;;3.60;;
27025;SDS011;14565;48.626;8.978;2023-07-09T13:15:19;8.45;;;3.10;;
27025;SDS011;14565;48.626;8.978;2023-07-09T13:18:02;5.22;;;2.95;;
27025;SDS011;14565;48.626;8.978;2023-07-09T13:20:30;7.30;;;2.70;;
27025;SDS011;14565;48.626;8.978;2023-07-09T13:22:57;7.35;;;3.25;;
27025;SDS011;14565;48.626;8.978;2023-07-09T13:25:23;7.97;;;3.20;;
27025;SDS011;14565;48.626;8.978;2023-07-09T13:27:49;7.68;;;3.75;;
27025;SDS011;14565;48.626;8.978;2023-07-09T13:30:15;6.63;;;3.50;;
27025;SDS011;14565;48.626;8.978;2023-07-09T13:32:41;9.02;;;3.80;;
27025;SDS011;14565;48.626;8.978;2023-07-09T13:35:17;7.80;;;3.63;;
27025;SDS011;14565;48.626;8.978;2023-07-09T13:37:45;4.50;;;3.33;;
27025;SDS011;14565;48.626;8.978;2023-07-09T13:40:15;9.98;;;3.65;;
27025;SDS011;14565;48.626;8.978;2023-07-09T13:42:41;7.45;;;3.45;;
27025;SDS011;14565;48.626;8.978;2023-07-09T13:45:19;6.55;;;3.10;;
27025;SDS011;14565;48.626;8.978;2023-07-09T13:47:47;11.55;;;3.70;;
27025;SDS011;14565;48.626;8.978;2023-07-09T13:50:15;9.85;;;3.53;;
27025;SDS011;14565;48.626;8.978;2023-07-09T13:52:41;5.82;;;3.00;;
27025;SDS011;14565;48.626;8.978;2023-07-09T13:55:10;7.32;;;3.08;;
27025;SDS011;14565;48.626;8.978;2023-07-09T13:57:42;10.00;;;3.10;;
27025;SDS011;14565;48.626;8.978;2023-07-09T14:00:09;5.00;;;2.97;;
27025;SDS011;14565;48.626;8.978;2023-07-09T14:02:37;8.13;;;3.50;;
27025;SDS011;14565;48.626;8.978;2023-07-09T14:05:04;8.27;;;3.67;;
27025;SDS011;14565;48.626;8.978;2023-07-09T14:07:33;7.53;;;2.65;;
27025;SDS011;14565;48.626;8.978;2023-07-09T14:10:00;4.20;;;2.65;;
27025;SDS011;14565;48.626;8.978;2023-07-09T14:12:28;4.60;;;2.45;;
27025;SDS011;14565;48.626;8.978;2023-07-09T14:14:58;4.68;;;2.72;;
27025;SDS011;14565;48.626;8.978;2023-07-09T14:17:26;4.80;;;2.90;;
27025;SDS011;14565;48.626;8.978;2023-07-09T14:19:54;6.82;;;3.15;;
27025;SDS011;14565;48.626;8.978;2023-07-09T14:25:00;8.18;;;2.88;;
27025;SDS011;14565;48.626;8.978;2023-07-09T14:27:26;5.10;;;2.63;;
27025;SDS011;14565;48.626;8.978;2023-07-09T14:29:53;4.03;;;2.78;;
27025;SDS011;14565;48.626;8.978;2023-07-09T14:35:02;8.98;;;3.17;;
27025;SDS011;14565;48.626;8.978;2023-07-09T14:37:34;7.90;;;2.90;;
27025;SDS011;14565;48.626;8.978;2023-07-09T14:40:00;10.00;;;3.20;;
27025;SDS011;14565;48.626;8.978;2023-07-09T14:42:26;4.70;;;3.10;;
27025;SDS011;14565;48.626;8.978;2023-07-09T14:44:54;6.65;;;3.10;;
27025;SDS011;14565;48.626;8.978;2023-07-09T14:47:20;6.95;;;2.83;;
27025;SDS011;14565;48.626;8.978;2023-07-09T14:49:53;8.32;;;3.30;;
27025;SDS011;14565;48.626;8.978;2023-07-09T14:52:19;5.72;;;3.03;;
27025;SDS011;14565;48.626;8.978;2023-07-09T14:54:46;5.65;;;3.17;;
27025;SDS011;14565;48.626;8.978;2023-07-09T14:59:46;10.43;;;3.00;;
27025;SDS011;14565;48.626;8.978;2023-07-09T15:02:34;4.75;;;2.67;;
27025;SDS011;14565;48.626;8.978;2023-07-09T15:05:02;6.30;;;3.00;;
27025;SDS011;14565;48.626;8.978;2023-07-09T15:07:36;5.70;;;3.10;;
27025;SDS011;14565;48.626;8.978;2023-07-09T15:10:02;5.68;;;2.80;;
27025;SDS011;14565;48.626;8.978;2023-07-09T15:12:33;7.32;;;3.10;;
27025;SDS011;14565;48.626;8.978;2023-07-09T15:17:41;5.82;;;2.97;;
27025;SDS011;14565;48.626;8.978;2023-07-09T15:20:14;7.20;;;3.00;;
27025;SDS011;14565;48.626;8.978;2023-07-09T15:22:41;6.43;;;3.20;;
27025;SDS011;14565;48.626;8.978;2023-07-09T15:25:11;7.43;;;3.55;;
27025;SDS011;14565;48.626;8.978;2023-07-09T15:27:39;6.40;;;3.20;;
27025;SDS011;14565;48.626;8.978;2023-07-09T15:30:18;6.03;;;2.90;;
27025;SDS011;14565;48.626;8.978;2023-07-09T15:32:46;8.27;;;3.05;;
27025;SDS011;14565;48.626;8.978;2023-07-09T15:37:39;8.52;;;2.90;;
27025;SDS011;14565;48.626;8.978;2023-07-09T15:40:13;5.13;;;2.55;;
27025;SDS011;14565;48.626;8.978;2023-07-09T15:42:46;7.57;;;3.05;;
27025;SDS011;14565;48.626;8.978;2023-07-09T15:45:25;6.07;;;3.10;;
27025;SDS011;14565;48.626;8.978;2023-07-09T15:47:51;9.40;;;3.30;;
27025;SDS011;14565;48.626;8.978;2023-07-09T15:50:18;5.65;;;2.63;;
27025;SDS011;14565;48.626;8.978;2023-07-09T15:52:48;8.05;;;2.88;;
27025;SDS011;14565;48.626;8.978;2023-07-09T15:55:26;4.55;;;2.38;;
27025;SDS011;14565;48.626;8.978;2023-07-09T15:57:54;7.45;;;3.05;;
27025;SDS011;14565;48.626;8.978;2023-07-09T16:02:49;18.75;;;3.40;;
27025;SDS011;14565;48.626;8.978;2023-07-09T16:05:29;5.88;;;3.03;;
27025;SDS011;14565;48.626;8.978;2023-07-09T16:07:56;9.27;;;5.30;;